Gay Head, Massachusetts
Current Conditions -  °F | °C
As of 2:53 PM on Sunday 25 Jan 2015 (Local Time) from KMVY Reporting Station
Clear Clear  
Wind Chill: 30°   Ceiling: Unl
Heat Index: 39°   Visibility: 10mi
Dew Point: 16°   Wind: 16mph
Humidity: 39%   Direction: 300°WNW
Pressure: 29.69"   Gusts: 29mph
Location:  41.3536°N, 70.7417°W
Report Text: KMVY 251953Z 30014G25KT 10SM CLR 04/M09 A2969 RMK AO2 PK WND 29026/1941 SLP054 T00391089
Loading
Personal Weather Stations






























Interactive Weather Map New forecast layout! Learn more

10-Day Weather Forecast

Advertisements
Track Severe Weather on mobile